Askew, Mississippi
Current Conditions -  °F | °C
As of 2:15 AM on Monday 24 Nov 2014 (Local Time) from KUTA Reporting Station
Clear Clear  
Wind Chill: 15°   Ceiling: Unl
Heat Index: 15°   Visibility: 10mi
Dew Point: 11°   Wind: 16mph
Humidity: 77%   Direction: 230°SW
Pressure: 29.53"   Gusts: NA
Location:  34.441°N, 90.1719°W
Report Text: KUTA 240815Z AUTO 23014KT 10SM CLR 15/11 A2953 RMK AO2
Loading
Personal Weather Stations






























Interactive Weather Map New forecast layout! Learn more

10-Day Weather Forecast

Advertisements
Track Severe Weather on mobile